»·PEaware :: N210AR 3L2-49X

N210AR :: 3L2-49X

FLIGHT INFORMATION

Flight Status: Arrived
Operator: Privately registered:
United States
More flights under this callsign
Pilot: Max S. (16657)
Aircraft: CESSNA 172 SKYHAWK
(C172)
More flights by this aircraft type
Origin: 3L2 Sky Ranch
United States
Destination: 49X Chemehuevi Valley
United States
More flights between these airports :: More routes between these airports
Route: +
File this flight plan on PilotEdge
Remarks: ALPHABET CHALLENGE
Altitude:
(Current/Filed)
7,500ft
Speed:
(Current/Filed)
110kts
Departed: 16-Mar-20 08:50 AM
Arrived: 16-Mar-20 09:44 AM
Distance/Time
Traveled:
96nm/0:54
Distance/Time
To Go:
Arrived

Flight Plot

Page will automatically refresh every two minutes.


Map Options




Map Legend


Flown Route
Filed Route
Departure Airport
Arrival Airport
Navaid (VOR, NDB)
Fix

Horizontal Profiles

Position Reports

Time Latitude Longitude Heading Altitude Ground
Speed
16-Mar-20 08:40 35.795095 -115.626494 273 2586ft 0kts
16-Mar-20 08:41 35.795095 -115.626494 273 2586ft 0kts
16-Mar-20 08:43 35.795095 -115.626494 273 2586ft 0kts
16-Mar-20 08:43 35.795095 -115.626494 273 2586ft 0kts
16-Mar-20 08:44 35.795095 -115.626494 273 2586ft 0kts
16-Mar-20 08:45 35.795464 -115.626787 358 2586ft 0kts
16-Mar-20 08:46 35.798162 -115.625860 85 2589ft 19kts
16-Mar-20 08:47 35.800835 -115.623673 15 2597ft 14kts
16-Mar-20 08:48 35.800129 -115.621544 222 2595ft 34kts
16-Mar-20 08:49 35.786530 -115.637881 220 3093ft 72kts
16-Mar-20 08:50 35.770424 -115.635296 132 3674ft 74kts
16-Mar-20 08:51 35.755472 -115.614537 128 4187ft 84kts
16-Mar-20 08:52 35.738435 -115.596457 123 4752ft 82kts
16-Mar-20 08:53 35.725640 -115.572973 116 5268ft 84kts
16-Mar-20 08:54 35.711369 -115.550200 144 5717ft 88kts
16-Mar-20 08:55 35.692855 -115.532110 134 6221ft 84kts
16-Mar-20 08:56 35.675562 -115.511948 144 6650ft 86kts
16-Mar-20 08:57 35.655137 -115.496330 143 7102ft 83kts
16-Mar-20 08:58 35.636236 -115.478469 130 7426ft 95kts
16-Mar-20 08:59 35.613216 -115.453544 141 7417ft 121kts
16-Mar-20 09:00 35.587664 -115.429088 141 7413ft 118kts
16-Mar-20 09:01 35.564137 -115.406402 150 7516ft 110kts
16-Mar-20 09:02 35.539754 -115.383148 150 7516ft 111kts
16-Mar-20 09:03 35.515892 -115.360305 150 7516ft 111kts
16-Mar-20 09:04 35.491753 -115.337201 150 7513ft 110kts
16-Mar-20 09:05 35.467460 -115.313960 150 7513ft 110kts
16-Mar-20 09:06 35.443218 -115.290797 150 7513ft 110kts
16-Mar-20 09:07 35.418976 -115.267646 150 7513ft 110kts
16-Mar-20 09:08 35.394825 -115.244435 150 7513ft 110kts
16-Mar-20 09:09 35.370623 -115.221203 150 7513ft 110kts
16-Mar-20 09:10 35.346335 -115.197980 151 7512ft 111kts
16-Mar-20 09:11 35.321554 -115.174308 151 7508ft 115kts
16-Mar-20 09:12 35.295830 -115.149800 151 7504ft 119kts
16-Mar-20 09:13 35.269347 -115.124617 150 7501ft 122kts
16-Mar-20 09:14 35.241840 -115.098553 149 7336ft 133kts
16-Mar-20 09:15 35.212132 -115.070405 147 6833ft 134kts
16-Mar-20 09:16 35.182455 -115.042251 146 6331ft 134kts
16-Mar-20 09:17 35.153000 -115.014322 145 5832ft 133kts
16-Mar-20 09:18 35.124109 -114.986920 144 5502ft 123kts
16-Mar-20 09:19 35.096473 -114.960678 144 5508ft 128kts
16-Mar-20 09:20 35.068336 -114.934079 144 5508ft 127kts
16-Mar-20 09:21 35.040288 -114.907581 144 5508ft 127kts
16-Mar-20 09:22 35.012294 -114.881167 144 5508ft 127kts
16-Mar-20 09:23 34.984140 -114.854614 143 5508ft 128kts
16-Mar-20 09:24 34.958300 -114.830329 139 5505ft 110kts
16-Mar-20 09:25 34.934314 -114.807659 139 5506ft 108kts
16-Mar-20 09:26 34.910238 -114.785326 141 5506ft 108kts
16-Mar-20 09:27 34.886615 -114.763837 140 5507ft 108kts
16-Mar-20 09:28 34.862680 -114.741467 140 5507ft 108kts
16-Mar-20 09:29 34.838719 -114.719012 140 5507ft 108kts
16-Mar-20 09:30 34.814830 -114.696634 140 5507ft 108kts
16-Mar-20 09:31 34.790926 -114.674258 140 5507ft 108kts
16-Mar-20 09:32 34.767063 -114.651938 140 5507ft 108kts
16-Mar-20 09:33 34.743185 -114.629619 140 5507ft 108kts
16-Mar-20 09:34 34.719213 -114.607231 140 5507ft 108kts
16-Mar-20 09:35 34.695320 -114.584934 140 5506ft 108kts
16-Mar-20 09:36 34.671345 -114.562576 140 5506ft 109kts
16-Mar-20 09:37 34.647263 -114.540158 139 5506ft 109kts
16-Mar-20 09:38 34.623135 -114.517390 136 5506ft 108kts
16-Mar-20 09:39 34.602456 -114.490739 111 4289ft 118kts
16-Mar-20 09:40 34.595283 -114.450920 99 2987ft 122kts
16-Mar-20 09:41 34.571339 -114.431195 180 1700ft 99kts
16-Mar-20 09:42 34.549141 -114.431997 180 1210ft 69kts
16-Mar-20 09:43 34.530171 -114.432017 179 614ft 29kts
16-Mar-20 09:44 34.528906 -114.430615 89 614ft 3kts
16-Mar-20 09:45 34.529031 -114.430249 244 614ft 0kts
16-Mar-20 09:46 34.529031 -114.430249 244 614ft 0kts
16-Mar-20 09:47 34.529031 -114.430249 244 614ft 0kts
16-Mar-20 09:48 34.529031 -114.430249 244 614ft 0kts
16-Mar-20 09:49 34.529031 -114.430249 244 614ft 0kts
16-Mar-20 09:50 34.529031 -114.430249 244 614ft 0kts
16-Mar-20 09:51 34.529031 -114.430249 244 614ft 0kts
16-Mar-20 09:52 34.529031 -114.430249 244 614ft 0kts
16-Mar-20 09:53 34.529031 -114.430249 244 614ft 0kts
16-Mar-20 09:54 34.529031 -114.430249 244 614ft 0kts
16-Mar-20 09:55 34.529031 -114.430249 244 614ft 0kts
16-Mar-20 09:56 34.529031 -114.430249 244 614ft 0kts

Navigation Log

Ident Type
Flight plan parsing failed, navigation log unavailable